sensor_id;sensor_type;location;lat;lon;timestamp;P1;durP1;ratioP1;P2;durP2;ratioP2
46835;SDS011;32573;51.290;6.926;2022-09-27T00:00:31;5.68;;;2.20;;
46835;SDS011;32573;51.290;6.926;2022-09-27T00:03:00;4.35;;;2.20;;
46835;SDS011;32573;51.290;6.926;2022-09-27T00:05:28;5.65;;;2.50;;
46835;SDS011;32573;51.290;6.926;2022-09-27T00:07:57;4.57;;;2.20;;
46835;SDS011;32573;51.290;6.926;2022-09-27T00:10:25;6.55;;;2.88;;
46835;SDS011;32573;51.290;6.926;2022-09-27T00:12:56;7.20;;;3.38;;
46835;SDS011;32573;51.290;6.926;2022-09-27T00:15:25;8.48;;;3.90;;
46835;SDS011;32573;51.290;6.926;2022-09-27T00:17:53;7.70;;;4.00;;
46835;SDS011;32573;51.290;6.926;2022-09-27T00:20:22;7.72;;;3.42;;
46835;SDS011;32573;51.290;6.926;2022-09-27T00:22:51;8.65;;;3.20;;
46835;SDS011;32573;51.290;6.926;2022-09-27T00:25:19;6.88;;;2.88;;
46835;SDS011;32573;51.290;6.926;2022-09-27T00:27:48;6.85;;;3.05;;
46835;SDS011;32573;51.290;6.926;2022-09-27T00:30:18;8.98;;;2.83;;
46835;SDS011;32573;51.290;6.926;2022-09-27T00:32:46;5.25;;;2.25;;
46835;SDS011;32573;51.290;6.926;2022-09-27T00:35:15;6.15;;;2.60;;
46835;SDS011;32573;51.290;6.926;2022-09-27T00:37:46;4.32;;;1.77;;
46835;SDS011;32573;51.290;6.926;2022-09-27T00:40:15;6.10;;;1.90;;
46835;SDS011;32573;51.290;6.926;2022-09-27T00:42:45;4.78;;;1.70;;
46835;SDS011;32573;51.290;6.926;2022-09-27T00:45:15;6.10;;;2.03;;
46835;SDS011;32573;51.290;6.926;2022-09-27T00:47:48;5.78;;;1.90;;
46835;SDS011;32573;51.290;6.926;2022-09-27T00:50:21;4.55;;;1.83;;
46835;SDS011;32573;51.290;6.926;2022-09-27T00:52:58;6.05;;;2.38;;
46835;SDS011;32573;51.290;6.926;2022-09-27T00:55:36;6.18;;;2.22;;
46835;SDS011;32573;51.290;6.926;2022-09-27T00:58:10;7.70;;;2.40;;
46835;SDS011;32573;51.290;6.926;2022-09-27T01:00:43;5.32;;;2.40;;
46835;SDS011;32573;51.290;6.926;2022-09-27T01:03:19;5.85;;;2.40;;
46835;SDS011;32573;51.290;6.926;2022-09-27T01:05:53;6.85;;;2.40;;
46835;SDS011;32573;51.290;6.926;2022-09-27T01:08:22;5.93;;;1.98;;
46835;SDS011;32573;51.290;6.926;2022-09-27T01:10:52;9.68;;;3.50;;
46835;SDS011;32573;51.290;6.926;2022-09-27T01:13:34;5.72;;;2.60;;
46835;SDS011;32573;51.290;6.926;2022-09-27T01:16:08;8.68;;;3.30;;
46835;SDS011;32573;51.290;6.926;2022-09-27T01:18:49;11.25;;;4.18;;
46835;SDS011;32573;51.290;6.926;2022-09-27T01:21:37;11.00;;;4.50;;
46835;SDS011;32573;51.290;6.926;2022-09-27T01:24:16;9.68;;;4.07;;
46835;SDS011;32573;51.290;6.926;2022-09-27T01:27:11;7.28;;;3.45;;
46835;SDS011;32573;51.290;6.926;2022-09-27T01:30:16;8.02;;;3.95;;
46835;SDS011;32573;51.290;6.926;2022-09-27T01:32:51;7.57;;;3.75;;
46835;SDS011;32573;51.290;6.926;2022-09-27T01:35:32;9.77;;;3.88;;
46835;SDS011;32573;51.290;6.926;2022-09-27T01:38:09;9.25;;;3.53;;
46835;SDS011;32573;51.290;6.926;2022-09-27T01:40:46;8.02;;;3.55;;
46835;SDS011;32573;51.290;6.926;2022-09-27T01:43:39;8.13;;;3.65;;
46835;SDS011;32573;51.290;6.926;2022-09-27T01:46:17;8.38;;;3.38;;
46835;SDS011;32573;51.290;6.926;2022-09-27T01:49:17;8.65;;;3.60;;
46835;SDS011;32573;51.290;6.926;2022-09-27T01:51:51;7.30;;;3.22;;
46835;SDS011;32573;51.290;6.926;2022-09-27T01:54:25;7.00;;;3.22;;
46835;SDS011;32573;51.290;6.926;2022-09-27T01:57:41;6.43;;;2.97;;
46835;SDS011;32573;51.290;6.926;2022-09-27T02:00:27;6.60;;;3.25;;
46835;SDS011;32573;51.290;6.926;2022-09-27T02:02:57;7.35;;;3.40;;
46835;SDS011;32573;51.290;6.926;2022-09-27T02:05:34;10.15;;;3.35;;
46835;SDS011;32573;51.290;6.926;2022-09-27T02:08:30;6.30;;;3.00;;
46835;SDS011;32573;51.290;6.926;2022-09-27T02:11:12;7.90;;;3.10;;
46835;SDS011;32573;51.290;6.926;2022-09-27T02:13:52;7.82;;;3.13;;
46835;SDS011;32573;51.290;6.926;2022-09-27T02:16:40;5.68;;;2.90;;
46835;SDS011;32573;51.290;6.926;2022-09-27T02:19:20;6.03;;;3.30;;
46835;SDS011;32573;51.290;6.926;2022-09-27T02:22:05;6.80;;;3.28;;
46835;SDS011;32573;51.290;6.926;2022-09-27T02:24:43;6.68;;;3.20;;
46835;SDS011;32573;51.290;6.926;2022-09-27T02:27:16;7.05;;;3.13;;
46835;SDS011;32573;51.290;6.926;2022-09-27T02:29:52;9.20;;;3.63;;
46835;SDS011;32573;51.290;6.926;2022-09-27T02:32:26;7.50;;;3.60;;
46835;SDS011;32573;51.290;6.926;2022-09-27T02:34:57;8.60;;;3.50;;
46835;SDS011;32573;51.290;6.926;2022-09-27T02:37:28;10.25;;;3.88;;
46835;SDS011;32573;51.290;6.926;2022-09-27T02:39:57;6.93;;;3.47;;
46835;SDS011;32573;51.290;6.926;2022-09-27T02:42:26;6.82;;;3.50;;
46835;SDS011;32573;51.290;6.926;2022-09-27T02:44:55;7.20;;;3.65;;
46835;SDS011;32573;51.290;6.926;2022-09-27T02:47:27;7.65;;;3.60;;
46835;SDS011;32573;51.290;6.926;2022-09-27T02:50:13;7.30;;;3.42;;
46835;SDS011;32573;51.290;6.926;2022-09-27T02:53:10;6.53;;;2.95;;
46835;SDS011;32573;51.290;6.926;2022-09-27T02:55:59;6.32;;;2.85;;
46835;SDS011;32573;51.290;6.926;2022-09-27T02:58:53;6.38;;;3.20;;
46835;SDS011;32573;51.290;6.926;2022-09-27T03:01:50;6.57;;;3.58;;
46835;SDS011;32573;51.290;6.926;2022-09-27T03:04:35;7.10;;;3.70;;
46835;SDS011;32573;51.290;6.926;2022-09-27T03:07:09;10.18;;;4.80;;
46835;SDS011;32573;51.290;6.926;2022-09-27T03:09:40;7.45;;;4.45;;
46835;SDS011;32573;51.290;6.926;2022-09-27T03:12:11;7.07;;;4.50;;
46835;SDS011;32573;51.290;6.926;2022-09-27T03:14:39;8.13;;;4.22;;
46835;SDS011;32573;51.290;6.926;2022-09-27T03:17:27;7.07;;;3.90;;
46835;SDS011;32573;51.290;6.926;2022-09-27T03:20:16;8.10;;;3.95;;
46835;SDS011;32573;51.290;6.926;2022-09-27T03:22:51;7.25;;;3.30;;
46835;SDS011;32573;51.290;6.926;2022-09-27T03:25:19;7.43;;;3.55;;
46835;SDS011;32573;51.290;6.926;2022-09-27T03:27:48;6.05;;;3.58;;
46835;SDS011;32573;51.290;6.926;2022-09-27T03:30:17;9.10;;;4.43;;
46835;SDS011;32573;51.290;6.926;2022-09-27T03:32:46;8.10;;;4.07;;
46835;SDS011;32573;51.290;6.926;2022-09-27T03:35:34;7.93;;;4.50;;
46835;SDS011;32573;51.290;6.926;2022-09-27T03:38:05;9.02;;;4.22;;
46835;SDS011;32573;51.290;6.926;2022-09-27T03:40:34;7.47;;;3.95;;
46835;SDS011;32573;51.290;6.926;2022-09-27T03:43:04;8.02;;;4.40;;
46835;SDS011;32573;51.290;6.926;2022-09-27T03:45:33;7.10;;;3.80;;
46835;SDS011;32573;51.290;6.926;2022-09-27T03:48:05;6.90;;;3.20;;
46835;SDS011;32573;51.290;6.926;2022-09-27T03:50:34;7.75;;;3.50;;
46835;SDS011;32573;51.290;6.926;2022-09-27T03:53:03;5.97;;;3.28;;
46835;SDS011;32573;51.290;6.926;2022-09-27T03:55:33;7.47;;;3.58;;
46835;SDS011;32573;51.290;6.926;2022-09-27T03:58:01;7.32;;;3.30;;
46835;SDS011;32573;51.290;6.926;2022-09-27T04:00:31;8.15;;;3.15;;
46835;SDS011;32573;51.290;6.926;2022-09-27T04:03:00;5.15;;;2.75;;
46835;SDS011;32573;51.290;6.926;2022-09-27T04:05:28;5.68;;;2.72;;
46835;SDS011;32573;51.290;6.926;2022-09-27T04:08:06;4.68;;;2.55;;
46835;SDS011;32573;51.290;6.926;2022-09-27T04:10:38;5.45;;;3.20;;
46835;SDS011;32573;51.290;6.926;2022-09-27T04:13:08;7.15;;;3.05;;
46835;SDS011;32573;51.290;6.926;2022-09-27T04:15:43;6.25;;;2.58;;
46835;SDS011;32573;51.290;6.926;2022-09-27T04:18:36;7.47;;;2.92;;
46835;SDS011;32573;51.290;6.926;2022-09-27T04:21:11;6.03;;;3.00;;
46835;SDS011;32573;51.290;6.926;2022-09-27T04:23:46;7.03;;;3.25;;
46835;SDS011;32573;51.290;6.926;2022-09-27T04:26:18;4.45;;;2.42;;
46835;SDS011;32573;51.290;6.926;2022-09-27T04:28:49;5.55;;;2.65;;
46835;SDS011;32573;51.290;6.926;2022-09-27T04:31:21;8.00;;;3.05;;
46835;SDS011;32573;51.290;6.926;2022-09-27T04:34:12;5.85;;;2.50;;
46835;SDS011;32573;51.290;6.926;2022-09-27T04:36:41;8.05;;;2.80;;
46835;SDS011;32573;51.290;6.926;2022-09-27T04:39:16;7.00;;;2.22;;
46835;SDS011;32573;51.290;6.926;2022-09-27T04:41:47;5.10;;;2.40;;
46835;SDS011;32573;51.290;6.926;2022-09-27T04:44:16;4.30;;;2.00;;
46835;SDS011;32573;51.290;6.926;2022-09-27T04:46:48;5.53;;;2.10;;
46835;SDS011;32573;51.290;6.926;2022-09-27T04:49:17;4.78;;;2.00;;
46835;SDS011;32573;51.290;6.926;2022-09-27T04:51:45;4.35;;;1.70;;
46835;SDS011;32573;51.290;6.926;2022-09-27T04:54:14;4.38;;;1.67;;
46835;SDS011;32573;51.290;6.926;2022-09-27T04:56:56;5.40;;;2.20;;
46835;SDS011;32573;51.290;6.926;2022-09-27T04:59:24;3.70;;;1.70;;
46835;SDS011;32573;51.290;6.926;2022-09-27T05:01:53;3.38;;;1.40;;
46835;SDS011;32573;51.290;6.926;2022-09-27T05:04:54;4.30;;;1.38;;
46835;SDS011;32573;51.290;6.926;2022-09-27T05:07:32;3.28;;;1.40;;
46835;SDS011;32573;51.290;6.926;2022-09-27T05:10:06;3.63;;;1.40;;
46835;SDS011;32573;51.290;6.926;2022-09-27T05:12:37;4.50;;;1.35;;
46835;SDS011;32573;51.290;6.926;2022-09-27T05:15:07;2.83;;;1.20;;
46835;SDS011;32573;51.290;6.926;2022-09-27T05:17:54;3.72;;;1.73;;
46835;SDS011;32573;51.290;6.926;2022-09-27T05:20:56;4.97;;;1.60;;
46835;SDS011;32573;51.290;6.926;2022-09-27T05:23:35;3.63;;;1.70;;
46835;SDS011;32573;51.290;6.926;2022-09-27T05:26:03;5.03;;;1.40;;
46835;SDS011;32573;51.290;6.926;2022-09-27T05:28:34;3.83;;;1.20;;
46835;SDS011;32573;51.290;6.926;2022-09-27T05:31:02;3.42;;;1.20;;
46835;SDS011;32573;51.290;6.926;2022-09-27T05:33:31;3.70;;;1.38;;
46835;SDS011;32573;51.290;6.926;2022-09-27T05:36:15;5.57;;;1.63;;
46835;SDS011;32573;51.290;6.926;2022-09-27T05:38:43;3.05;;;1.23;;
46835;SDS011;32573;51.290;6.926;2022-09-27T05:41:12;4.20;;;1.30;;
46835;SDS011;32573;51.290;6.926;2022-09-27T05:43:43;5.25;;;1.30;;
46835;SDS011;32573;51.290;6.926;2022-09-27T05:46:13;4.30;;;1.30;;
46835;SDS011;32573;51.290;6.926;2022-09-27T05:48:42;4.07;;;1.30;;
46835;SDS011;32573;51.290;6.926;2022-09-27T05:51:11;4.10;;;1.30;;
46835;SDS011;32573;51.290;6.926;2022-09-27T05:53:40;5.50;;;1.30;;
46835;SDS011;32573;51.290;6.926;2022-09-27T05:56:19;4.38;;;1.30;;
46835;SDS011;32573;51.290;6.926;2022-09-27T05:59:19;3.30;;;1.10;;
46835;SDS011;32573;51.290;6.926;2022-09-27T06:02:13;4.80;;;1.42;;
46835;SDS011;32573;51.290;6.926;2022-09-27T06:04:45;4.13;;;1.40;;
46835;SDS011;32573;51.290;6.926;2022-09-27T06:07:33;4.05;;;1.38;;
46835;SDS011;32573;51.290;6.926;2022-09-27T06:10:05;5.05;;;1.10;;
46835;SDS011;32573;51.290;6.926;2022-09-27T06:12:34;3.08;;;1.10;;
46835;SDS011;32573;51.290;6.926;2022-09-27T06:15:12;4.47;;;1.40;;
46835;SDS011;32573;51.290;6.926;2022-09-27T06:17:43;4.28;;;1.20;;
46835;SDS011;32573;51.290;6.926;2022-09-27T06:20:15;4.68;;;1.40;;
46835;SDS011;32573;51.290;6.926;2022-09-27T06:22:45;3.42;;;1.10;;
46835;SDS011;32573;51.290;6.926;2022-09-27T06:25:14;5.63;;;1.40;;
46835;SDS011;32573;51.290;6.926;2022-09-27T06:27:56;4.18;;;1.20;;
46835;SDS011;32573;51.290;6.926;2022-09-27T06:30:29;3.22;;;1.10;;
46835;SDS011;32573;51.290;6.926;2022-09-27T06:33:04;3.08;;;1.10;;
46835;SDS011;32573;51.290;6.926;2022-09-27T06:35:38;3.08;;;1.33;;
46835;SDS011;32573;51.290;6.926;2022-09-27T06:38:10;3.72;;;1.33;;
46835;SDS011;32573;51.290;6.926;2022-09-27T06:40:46;5.68;;;1.30;;
46835;SDS011;32573;51.290;6.926;2022-09-27T06:43:20;4.60;;;1.20;;
46835;SDS011;32573;51.290;6.926;2022-09-27T06:46:13;3.30;;;1.13;;
46835;SDS011;32573;51.290;6.926;2022-09-27T06:49:14;4.53;;;1.38;;
46835;SDS011;32573;51.290;6.926;2022-09-27T06:51:43;3.72;;;1.20;;
46835;SDS011;32573;51.290;6.926;2022-09-27T06:54:11;4.07;;;1.20;;
46835;SDS011;32573;51.290;6.926;2022-09-27T06:56:40;4.13;;;1.10;;
46835;SDS011;32573;51.290;6.926;2022-09-27T06:59:08;3.80;;;1.20;;
46835;SDS011;32573;51.290;6.926;2022-09-27T07:02:18;3.42;;;1.30;;
46835;SDS011;32573;51.290;6.926;2022-09-27T07:04:57;4.15;;;1.10;;
46835;SDS011;32573;51.290;6.926;2022-09-27T07:07:38;4.05;;;1.23;;
46835;SDS011;32573;51.290;6.926;2022-09-27T07:10:07;2.45;;;1.00;;
46835;SDS011;32573;51.290;6.926;2022-09-27T07:12:36;3.00;;;1.20;;
46835;SDS011;32573;51.290;6.926;2022-09-27T07:15:05;3.97;;;1.40;;
46835;SDS011;32573;51.290;6.926;2022-09-27T07:17:35;4.45;;;1.10;;
46835;SDS011;32573;51.290;6.926;2022-09-27T07:20:04;3.47;;;1.20;;
46835;SDS011;32573;51.290;6.926;2022-09-27T07:22:37;3.33;;;1.00;;
46835;SDS011;32573;51.290;6.926;2022-09-27T07:25:08;3.88;;;1.10;;
46835;SDS011;32573;51.290;6.926;2022-09-27T07:27:36;3.67;;;1.10;;
46835;SDS011;32573;51.290;6.926;2022-09-27T07:30:08;3.65;;;1.27;;
46835;SDS011;32573;51.290;6.926;2022-09-27T07:32:40;5.05;;;1.15;;
46835;SDS011;32573;51.290;6.926;2022-09-27T07:35:09;2.60;;;1.00;;
46835;SDS011;32573;51.290;6.926;2022-09-27T07:37:39;3.15;;;1.20;;
46835;SDS011;32573;51.290;6.926;2022-09-27T07:40:10;2.50;;;1.10;;
46835;SDS011;32573;51.290;6.926;2022-09-27T07:42:38;2.20;;;1.00;;
46835;SDS011;32573;51.290;6.926;2022-09-27T07:45:08;3.50;;;1.20;;
46835;SDS011;32573;51.290;6.926;2022-09-27T07:47:57;3.10;;;1.30;;
46835;SDS011;32573;51.290;6.926;2022-09-27T07:50:53;3.72;;;1.33;;
46835;SDS011;32573;51.290;6.926;2022-09-27T07:53:40;3.80;;;1.40;;
46835;SDS011;32573;51.290;6.926;2022-09-27T07:56:29;2.75;;;1.30;;
46835;SDS011;32573;51.290;6.926;2022-09-27T07:58:57;2.85;;;1.20;;
46835;SDS011;32573;51.290;6.926;2022-09-27T08:01:26;2.67;;;1.25;;
46835;SDS011;32573;51.290;6.926;2022-09-27T08:03:56;2.47;;;1.20;;
46835;SDS011;32573;51.290;6.926;2022-09-27T08:06:25;3.53;;;1.00;;
46835;SDS011;32573;51.290;6.926;2022-09-27T08:08:54;2.53;;;1.17;;
46835;SDS011;32573;51.290;6.926;2022-09-27T08:11:23;2.35;;;1.10;;
46835;SDS011;32573;51.290;6.926;2022-09-27T08:13:53;1.73;;;1.00;;
46835;SDS011;32573;51.290;6.926;2022-09-27T08:16:27;3.50;;;1.30;;
46835;SDS011;32573;51.290;6.926;2022-09-27T08:19:15;2.50;;;1.00;;
46835;SDS011;32573;51.290;6.926;2022-09-27T08:21:56;2.55;;;1.10;;
46835;SDS011;32573;51.290;6.926;2022-09-27T08:24:51;3.83;;;1.10;;
46835;SDS011;32573;51.290;6.926;2022-09-27T08:27:39;2.38;;;1.00;;
46835;SDS011;32573;51.290;6.926;2022-09-27T08:30:22;2.17;;;1.00;;
46835;SDS011;32573;51.290;6.926;2022-09-27T08:32:53;3.60;;;1.15;;
46835;SDS011;32573;51.290;6.926;2022-09-27T08:35:25;3.35;;;1.15;;
46835;SDS011;32573;51.290;6.926;2022-09-27T08:37:55;3.03;;;1.30;;
46835;SDS011;32573;51.290;6.926;2022-09-27T08:40:30;2.42;;;0.90;;
46835;SDS011;32573;51.290;6.926;2022-09-27T08:43:09;1.77;;;0.90;;
46835;SDS011;32573;51.290;6.926;2022-09-27T08:45:49;2.67;;;1.13;;
46835;SDS011;32573;51.290;6.926;2022-09-27T08:48:28;2.90;;;1.00;;
46835;SDS011;32573;51.290;6.926;2022-09-27T08:50:59;3.28;;;1.05;;
46835;SDS011;32573;51.290;6.926;2022-09-27T08:53:32;2.15;;;1.00;;
46835;SDS011;32573;51.290;6.926;2022-09-27T08:56:05;1.65;;;0.80;;
46835;SDS011;32573;51.290;6.926;2022-09-27T08:58:40;2.33;;;0.98;;
46835;SDS011;32573;51.290;6.926;2022-09-27T09:01:19;2.03;;;0.95;;
46835;SDS011;32573;51.290;6.926;2022-09-27T09:04:00;3.15;;;1.00;;
46835;SDS011;32573;51.290;6.926;2022-09-27T09:06:34;2.88;;;1.02;;
46835;SDS011;32573;51.290;6.926;2022-09-27T09:09:11;2.15;;;1.00;;
46835;SDS011;32573;51.290;6.926;2022-09-27T09:12:04;2.75;;;0.80;;
46835;SDS011;32573;51.290;6.926;2022-09-27T09:15:01;1.92;;;0.93;;
46835;SDS011;32573;51.290;6.926;2022-09-27T09:17:49;3.97;;;1.00;;
46835;SDS011;32573;51.290;6.926;2022-09-27T09:20:50;2.67;;;1.00;;
46835;SDS011;32573;51.290;6.926;2022-09-27T09:23:34;2.40;;;1.20;;
46835;SDS011;32573;51.290;6.926;2022-09-27T09:26:30;3.28;;;1.30;;
46835;SDS011;32573;51.290;6.926;2022-09-27T09:29:04;4.40;;;1.20;;
46835;SDS011;32573;51.290;6.926;2022-09-27T09:31:45;2.88;;;1.20;;
46835;SDS011;32573;51.290;6.926;2022-09-27T09:34:21;2.42;;;1.13;;
46835;SDS011;32573;51.290;6.926;2022-09-27T09:36:54;2.80;;;1.20;;
46835;SDS011;32573;51.290;6.926;2022-09-27T09:39:32;2.60;;;1.10;;
46835;SDS011;32573;51.290;6.926;2022-09-27T09:42:05;3.88;;;1.67;;
46835;SDS011;32573;51.290;6.926;2022-09-27T09:44:40;2.83;;;1.40;;
46835;SDS011;32573;51.290;6.926;2022-09-27T09:47:28;3.25;;;1.63;;
46835;SDS011;32573;51.290;6.926;2022-09-27T09:50:05;4.22;;;2.17;;
46835;SDS011;32573;51.290;6.926;2022-09-27T09:52:45;4.47;;;2.03;;
46835;SDS011;32573;51.290;6.926;2022-09-27T09:55:20;3.83;;;2.00;;
46835;SDS011;32573;51.290;6.926;2022-09-27T09:57:53;5.13;;;2.10;;
46835;SDS011;32573;51.290;6.926;2022-09-27T10:00:37;3.92;;;2.05;;
46835;SDS011;32573;51.290;6.926;2022-09-27T10:03:07;4.28;;;2.40;;
46835;SDS011;32573;51.290;6.926;2022-09-27T10:05:35;5.00;;;2.63;;
46835;SDS011;32573;51.290;6.926;2022-09-27T10:08:10;6.43;;;2.88;;
46835;SDS011;32573;51.290;6.926;2022-09-27T10:10:46;4.78;;;2.95;;
46835;SDS011;32573;51.290;6.926;2022-09-27T10:13:43;4.80;;;2.60;;
46835;SDS011;32573;51.290;6.926;2022-09-27T10:16:13;5.60;;;2.58;;
46835;SDS011;32573;51.290;6.926;2022-09-27T10:18:45;5.93;;;2.45;;
46835;SDS011;32573;51.290;6.926;2022-09-27T10:21:19;5.65;;;2.78;;
46835;SDS011;32573;51.290;6.926;2022-09-27T10:24:06;3.97;;;2.30;;
46835;SDS011;32573;51.290;6.926;2022-09-27T10:27:03;4.28;;;2.58;;
46835;SDS011;32573;51.290;6.926;2022-09-27T10:29:35;5.13;;;2.65;;
46835;SDS011;32573;51.290;6.926;2022-09-27T10:32:18;5.18;;;3.40;;
46835;SDS011;32573;51.290;6.926;2022-09-27T10:34:51;6.03;;;3.22;;
46835;SDS011;32573;51.290;6.926;2022-09-27T10:37:21;7.18;;;3.40;;
46835;SDS011;32573;51.290;6.926;2022-09-27T10:40:15;4.22;;;2.60;;
46835;SDS011;32573;51.290;6.926;2022-09-27T10:42:56;4.50;;;2.47;;
46835;SDS011;32573;51.290;6.926;2022-09-27T10:45:37;5.63;;;2.50;;
46835;SDS011;32573;51.290;6.926;2022-09-27T10:48:17;3.90;;;2.20;;
46835;SDS011;32573;51.290;6.926;2022-09-27T10:50:56;5.20;;;2.00;;
46835;SDS011;32573;51.290;6.926;2022-09-27T10:53:44;4.40;;;2.00;;
46835;SDS011;32573;51.290;6.926;2022-09-27T10:56:23;5.50;;;2.00;;
46835;SDS011;32573;51.290;6.926;2022-09-27T10:58:56;3.42;;;1.73;;
46835;SDS011;32573;51.290;6.926;2022-09-27T11:01:37;3.92;;;1.88;;
46835;SDS011;32573;51.290;6.926;2022-09-27T11:04:28;4.30;;;1.60;;
46835;SDS011;32573;51.290;6.926;2022-09-27T11:07:06;3.78;;;1.60;;
46835;SDS011;32573;51.290;6.926;2022-09-27T11:09:48;3.00;;;1.50;;
46835;SDS011;32573;51.290;6.926;2022-09-27T11:12:18;4.07;;;1.73;;
46835;SDS011;32573;51.290;6.926;2022-09-27T11:14:57;3.28;;;1.67;;
46835;SDS011;32573;51.290;6.926;2022-09-27T11:17:30;3.97;;;1.90;;
46835;SDS011;32573;51.290;6.926;2022-09-27T11:20:06;4.63;;;1.67;;
46835;SDS011;32573;51.290;6.926;2022-09-27T11:25:45;4.50;;;1.90;;
46835;SDS011;32573;51.290;6.926;2022-09-27T11:28:37;3.53;;;1.70;;
46835;SDS011;32573;51.290;6.926;2022-09-27T11:31:29;3.20;;;1.75;;
46835;SDS011;32573;51.290;6.926;2022-09-27T11:34:12;4.70;;;2.17;;
46835;SDS011;32573;51.290;6.926;2022-09-27T11:37:00;5.30;;;2.50;;
46835;SDS011;32573;51.290;6.926;2022-09-27T11:39:42;6.43;;;2.65;;
46835;SDS011;32573;51.290;6.926;2022-09-27T11:42:41;3.90;;;2.20;;
46835;SDS011;32573;51.290;6.926;2022-09-27T11:45:35;4.10;;;2.10;;
46835;SDS011;32573;51.290;6.926;2022-09-27T11:48:41;5.05;;;2.78;;
46835;SDS011;32573;51.290;6.926;2022-09-27T11:51:25;4.95;;;2.58;;
46835;SDS011;32573;51.290;6.926;2022-09-27T11:54:19;4.80;;;2.60;;
46835;SDS011;32573;51.290;6.926;2022-09-27T11:56:57;6.00;;;2.50;;
46835;SDS011;32573;51.290;6.926;2022-09-27T11:59:40;4.75;;;2.50;;
46835;SDS011;32573;51.290;6.926;2022-09-27T12:05:16;4.72;;;2.63;;
46835;SDS011;32573;51.290;6.926;2022-09-27T12:08:06;4.72;;;2.70;;
46835;SDS011;32573;51.290;6.926;2022-09-27T12:10:45;4.75;;;2.53;;
46835;SDS011;32573;51.290;6.926;2022-09-27T12:13:20;5.38;;;2.40;;
46835;SDS011;32573;51.290;6.926;2022-09-27T12:15:56;4.63;;;2.13;;
46835;SDS011;32573;51.290;6.926;2022-09-27T12:18:30;4.40;;;2.30;;
46835;SDS011;32573;51.290;6.926;2022-09-27T12:21:09;3.90;;;2.00;;
46835;SDS011;32573;51.290;6.926;2022-09-27T12:23:40;4.95;;;2.35;;
46835;SDS011;32573;51.290;6.926;2022-09-27T12:26:30;4.15;;;2.17;;
46835;SDS011;32573;51.290;6.926;2022-09-27T12:29:04;4.47;;;2.17;;
46835;SDS011;32573;51.290;6.926;2022-09-27T12:31:41;4.63;;;2.28;;
46835;SDS011;32573;51.290;6.926;2022-09-27T12:34:18;3.75;;;1.98;;
46835;SDS011;32573;51.290;6.926;2022-09-27T12:36:58;7.32;;;3.63;;
46835;SDS011;32573;51.290;6.926;2022-09-27T12:39:32;6.32;;;3.50;;
46835;SDS011;32573;51.290;6.926;2022-09-27T12:42:20;5.63;;;3.00;;
46835;SDS011;32573;51.290;6.926;2022-09-27T12:44:57;5.28;;;2.60;;
46835;SDS011;32573;51.290;6.926;2022-09-27T12:47:32;6.38;;;3.10;;
46835;SDS011;32573;51.290;6.926;2022-09-27T12:50:17;5.88;;;2.85;;
46835;SDS011;32573;51.290;6.926;2022-09-27T12:52:57;4.20;;;2.70;;
46835;SDS011;32573;51.290;6.926;2022-09-27T12:58:28;4.85;;;2.15;;
46835;SDS011;32573;51.290;6.926;2022-09-27T13:01:22;3.65;;;1.77;;
46835;SDS011;32573;51.290;6.926;2022-09-27T13:04:05;3.10;;;1.48;;
46835;SDS011;32573;51.290;6.926;2022-09-27T13:07:03;4.00;;;1.70;;
46835;SDS011;32573;51.290;6.926;2022-09-27T13:12:47;3.83;;;1.75;;
46835;SDS011;32573;51.290;6.926;2022-09-27T13:15:21;4.20;;;1.90;;
46835;SDS011;32573;51.290;6.926;2022-09-27T13:17:55;4.00;;;1.90;;
46835;SDS011;32573;51.290;6.926;2022-09-27T13:20:44;3.78;;;1.80;;
46835;SDS011;32573;51.290;6.926;2022-09-27T13:26:44;4.25;;;1.80;;
46835;SDS011;32573;51.290;6.926;2022-09-27T13:29:23;3.45;;;1.70;;
46835;SDS011;32573;51.290;6.926;2022-09-27T13:35:09;2.55;;;1.23;;
46835;SDS011;32573;51.290;6.926;2022-09-27T13:37:50;3.40;;;1.30;;
46835;SDS011;32573;51.290;6.926;2022-09-27T13:40:29;2.65;;;1.20;;
46835;SDS011;32573;51.290;6.926;2022-09-27T13:43:35;2.67;;;0.90;;
46835;SDS011;32573;51.290;6.926;2022-09-27T13:46:23;1.88;;;0.90;;
46835;SDS011;32573;51.290;6.926;2022-09-27T13:48:54;2.25;;;1.00;;
46835;SDS011;32573;51.290;6.926;2022-09-27T13:51:41;2.90;;;0.90;;
46835;SDS011;32573;51.290;6.926;2022-09-27T14:00:13;1.50;;;0.80;;
46835;SDS011;32573;51.290;6.926;2022-09-27T14:02:54;2.28;;;1.02;;
46835;SDS011;32573;51.290;6.926;2022-09-27T14:05:37;1.75;;;0.90;;
46835;SDS011;32573;51.290;6.926;2022-09-27T14:08:13;1.95;;;1.00;;
46835;SDS011;32573;51.290;6.926;2022-09-27T14:10:48;2.03;;;1.00;;
46835;SDS011;32573;51.290;6.926;2022-09-27T14:13:18;1.50;;;0.80;;
46835;SDS011;32573;51.290;6.926;2022-09-27T14:16:04;1.53;;;0.80;;
46835;SDS011;32573;51.290;6.926;2022-09-27T14:18:39;1.58;;;0.80;;
46835;SDS011;32573;51.290;6.926;2022-09-27T14:21:16;2.03;;;0.90;;
46835;SDS011;32573;51.290;6.926;2022-09-27T14:24:20;1.75;;;0.80;;
46835;SDS011;32573;51.290;6.926;2022-09-27T14:27:02;2.28;;;0.85;;
46835;SDS011;32573;51.290;6.926;2022-09-27T14:29:36;1.70;;;0.80;;
46835;SDS011;32573;51.290;6.926;2022-09-27T14:32:10;2.38;;;0.90;;
46835;SDS011;32573;51.290;6.926;2022-09-27T14:35:01;1.42;;;0.82;;
46835;SDS011;32573;51.290;6.926;2022-09-27T14:37:31;2.70;;;0.88;;
46835;SDS011;32573;51.290;6.926;2022-09-27T14:40:17;3.05;;;1.10;;
46835;SDS011;32573;51.290;6.926;2022-09-27T14:42:50;1.83;;;0.80;;
46835;SDS011;32573;51.290;6.926;2022-09-27T14:45:21;1.88;;;0.80;;
46835;SDS011;32573;51.290;6.926;2022-09-27T14:47:55;1.95;;;0.80;;
46835;SDS011;32573;51.290;6.926;2022-09-27T14:50:25;2.20;;;0.70;;
46835;SDS011;32573;51.290;6.926;2022-09-27T14:52:56;2.78;;;0.85;;
46835;SDS011;32573;51.290;6.926;2022-09-27T14:55:27;1.58;;;0.80;;
46835;SDS011;32573;51.290;6.926;2022-09-27T14:58:01;1.95;;;0.80;;
46835;SDS011;32573;51.290;6.926;2022-09-27T15:00:30;1.30;;;0.70;;
46835;SDS011;32573;51.290;6.926;2022-09-27T15:03:04;1.60;;;0.85;;
46835;SDS011;32573;51.290;6.926;2022-09-27T15:05:36;2.17;;;0.88;;
46835;SDS011;32573;51.290;6.926;2022-09-27T15:08:08;2.53;;;0.90;;
46835;SDS011;32573;51.290;6.926;2022-09-27T15:10:41;1.95;;;1.00;;
46835;SDS011;32573;51.290;6.926;2022-09-27T15:13:11;3.30;;;1.15;;
46835;SDS011;32573;51.290;6.926;2022-09-27T15:15:42;2.70;;;1.08;;
46835;SDS011;32573;51.290;6.926;2022-09-27T15:21:12;2.90;;;1.00;;
46835;SDS011;32573;51.290;6.926;2022-09-27T15:23:42;2.05;;;0.90;;
46835;SDS011;32573;51.290;6.926;2022-09-27T15:26:12;2.13;;;0.90;;
46835;SDS011;32573;51.290;6.926;2022-09-27T15:28:44;3.00;;;1.00;;
46835;SDS011;32573;51.290;6.926;2022-09-27T15:31:14;3.00;;;1.20;;
46835;SDS011;32573;51.290;6.926;2022-09-27T15:33:51;3.75;;;1.05;;
46835;SDS011;32573;51.290;6.926;2022-09-27T15:36:47;4.47;;;1.10;;
46835;SDS011;32573;51.290;6.926;2022-09-27T15:39:18;3.58;;;1.20;;
46835;SDS011;32573;51.290;6.926;2022-09-27T15:42:01;3.53;;;1.33;;
46835;SDS011;32573;51.290;6.926;2022-09-27T15:44:42;3.30;;;1.20;;
46835;SDS011;32573;51.290;6.926;2022-09-27T15:50:31;3.15;;;1.35;;
46835;SDS011;32573;51.290;6.926;2022-09-27T15:53:01;4.13;;;1.40;;
46835;SDS011;32573;51.290;6.926;2022-09-27T15:55:33;3.92;;;1.30;;
46835;SDS011;32573;51.290;6.926;2022-09-27T15:58:06;4.07;;;1.40;;
46835;SDS011;32573;51.290;6.926;2022-09-27T16:00:51;2.40;;;1.10;;
46835;SDS011;32573;51.290;6.926;2022-09-27T16:03:21;2.95;;;1.27;;
46835;SDS011;32573;51.290;6.926;2022-09-27T16:05:51;3.30;;;1.30;;
46835;SDS011;32573;51.290;6.926;2022-09-27T16:08:22;4.70;;;1.60;;
46835;SDS011;32573;51.290;6.926;2022-09-27T16:10:51;4.80;;;1.83;;
46835;SDS011;32573;51.290;6.926;2022-09-27T16:13:21;4.45;;;1.63;;
46835;SDS011;32573;51.290;6.926;2022-09-27T16:18:24;4.22;;;1.60;;
46835;SDS011;32573;51.290;6.926;2022-09-27T16:20:58;3.30;;;1.35;;